Pandora, Texas
Current Conditions -  °F | °C
As of 6:15 AM on Tuesday 27 Jan 2015 (Local Time) from KT20 Reporting Station
Clear Clear  
Wind Chill: 47°   Ceiling: Unl
Heat Index: 48°   Visibility: 10mi
Dew Point: 39°   Wind: 5mph
Humidity: 69%   Direction: 300°WNW
Pressure: 30.15"   Gusts: NA
Location:  29.25°N, 97.84°W
Report Text: KT20 271215Z AUTO 30004KT 10SM CLR 09/04 A3015 RMK AO2 T00910037
Loading
Personal Weather Stations






























Interactive Weather Map New forecast layout! Learn more

10-Day Weather Forecast

Advertisements
Track Severe Weather on mobile